sensor_id;sensor_type;location;lat;lon;timestamp;temperature;humidity
2749;DHT22;1382;52.142;11.618;2022-11-15T00:01:34;10.80;53.30
2749;DHT22;1382;52.142;11.618;2022-11-15T00:04:00;10.80;53.50
2749;DHT22;1382;52.142;11.618;2022-11-15T00:06:27;10.80;53.50
2749;DHT22;1382;52.142;11.618;2022-11-15T00:08:54;10.70;53.30
2749;DHT22;1382;52.142;11.618;2022-11-15T00:11:20;10.80;53.40
2749;DHT22;1382;52.142;11.618;2022-11-15T00:13:47;10.70;53.40
2749;DHT22;1382;52.142;11.618;2022-11-15T00:16:14;10.70;53.40
2749;DHT22;1382;52.142;11.618;2022-11-15T00:18:42;10.70;53.50
2749;DHT22;1382;52.142;11.618;2022-11-15T00:21:17;10.70;53.50
2749;DHT22;1382;52.142;11.618;2022-11-15T00:23:43;10.70;53.40
2749;DHT22;1382;52.142;11.618;2022-11-15T00:26:12;10.70;53.50
2749;DHT22;1382;52.142;11.618;2022-11-15T00:28:39;10.70;53.40
2749;DHT22;1382;52.142;11.618;2022-11-15T00:31:07;10.70;53.50
2749;DHT22;1382;52.142;11.618;2022-11-15T00:33:35;10.70;53.50
2749;DHT22;1382;52.142;11.618;2022-11-15T00:36:04;10.70;53.40
2749;DHT22;1382;52.142;11.618;2022-11-15T00:38:32;10.70;53.30
2749;DHT22;1382;52.142;11.618;2022-11-15T00:40:59;10.90;53.40
2749;DHT22;1382;52.142;11.618;2022-11-15T00:43:33;10.70;53.30
2749;DHT22;1382;52.142;11.618;2022-11-15T00:46:00;10.70;53.40
2749;DHT22;1382;52.142;11.618;2022-11-15T00:48:27;10.80;53.50
2749;DHT22;1382;52.142;11.618;2022-11-15T00:50:54;10.70;53.30
2749;DHT22;1382;52.142;11.618;2022-11-15T00:53:22;10.70;53.30
2749;DHT22;1382;52.142;11.618;2022-11-15T00:55:49;10.70;53.40
2749;DHT22;1382;52.142;11.618;2022-11-15T00:58:15;10.70;53.30
2749;DHT22;1382;52.142;11.618;2022-11-15T01:00:42;10.70;53.30
2749;DHT22;1382;52.142;11.618;2022-11-15T01:03:09;10.70;53.20
2749;DHT22;1382;52.142;11.618;2022-11-15T01:05:37;10.80;53.30
2749;DHT22;1382;52.142;11.618;2022-11-15T01:08:04;10.70;53.10
2749;DHT22;1382;52.142;11.618;2022-11-15T01:10:32;10.70;53.20
2749;DHT22;1382;52.142;11.618;2022-11-15T01:12:59;10.70;53.20
2749;DHT22;1382;52.142;11.618;2022-11-15T01:15:25;10.70;53.30
2749;DHT22;1382;52.142;11.618;2022-11-15T01:17:52;10.60;53.30
2749;DHT22;1382;52.142;11.618;2022-11-15T01:20:19;10.70;53.40
2749;DHT22;1382;52.142;11.618;2022-11-15T01:22:46;10.70;53.20
2749;DHT22;1382;52.142;11.618;2022-11-15T01:25:12;10.70;53.30
2749;DHT22;1382;52.142;11.618;2022-11-15T01:27:41;10.70;53.40
2749;DHT22;1382;52.142;11.618;2022-11-15T01:30:09;10.70;53.40
2749;DHT22;1382;52.142;11.618;2022-11-15T01:32:35;10.70;53.30
2749;DHT22;1382;52.142;11.618;2022-11-15T01:35:03;10.60;53.20
2749;DHT22;1382;52.142;11.618;2022-11-15T01:37:29;10.60;53.20
2749;DHT22;1382;52.142;11.618;2022-11-15T01:39:56;10.60;53.50
2749;DHT22;1382;52.142;11.618;2022-11-15T01:42:23;10.60;53.30
2749;DHT22;1382;52.142;11.618;2022-11-15T01:44:51;10.60;53.30
2749;DHT22;1382;52.142;11.618;2022-11-15T01:47:20;10.70;53.40
2749;DHT22;1382;52.142;11.618;2022-11-15T01:49:53;10.60;53.40
2749;DHT22;1382;52.142;11.618;2022-11-15T01:52:22;10.70;53.60
2749;DHT22;1382;52.142;11.618;2022-11-15T01:54:54;10.60;53.40
2749;DHT22;1382;52.142;11.618;2022-11-15T01:57:22;10.60;53.40
2749;DHT22;1382;52.142;11.618;2022-11-15T01:59:50;10.70;53.30
2749;DHT22;1382;52.142;11.618;2022-11-15T02:02:17;10.60;53.30
2749;DHT22;1382;52.142;11.618;2022-11-15T02:04:46;10.60;53.40
2749;DHT22;1382;52.142;11.618;2022-11-15T02:07:15;10.60;53.20
2749;DHT22;1382;52.142;11.618;2022-11-15T02:09:43;10.60;53.30
2749;DHT22;1382;52.142;11.618;2022-11-15T02:12:13;10.50;53.20
2749;DHT22;1382;52.142;11.618;2022-11-15T02:14:42;10.50;53.30
2749;DHT22;1382;52.142;11.618;2022-11-15T02:17:27;10.60;53.30
2749;DHT22;1382;52.142;11.618;2022-11-15T02:20:16;10.50;53.30
2749;DHT22;1382;52.142;11.618;2022-11-15T02:22:58;10.60;53.40
2749;DHT22;1382;52.142;11.618;2022-11-15T02:25:38;10.50;53.30
2749;DHT22;1382;52.142;11.618;2022-11-15T02:28:29;10.50;53.30
2749;DHT22;1382;52.142;11.618;2022-11-15T02:31:10;10.60;53.30
2749;DHT22;1382;52.142;11.618;2022-11-15T02:33:43;10.50;53.30
2749;DHT22;1382;52.142;11.618;2022-11-15T02:36:17;10.50;53.40
2749;DHT22;1382;52.142;11.618;2022-11-15T02:38:51;10.50;53.20
2749;DHT22;1382;52.142;11.618;2022-11-15T02:41:25;10.50;53.20
2749;DHT22;1382;52.142;11.618;2022-11-15T02:43:59;10.50;53.20
2749;DHT22;1382;52.142;11.618;2022-11-15T02:46:33;10.50;53.40
2749;DHT22;1382;52.142;11.618;2022-11-15T02:49:01;10.50;53.20
2749;DHT22;1382;52.142;11.618;2022-11-15T02:51:28;10.40;53.40
2749;DHT22;1382;52.142;11.618;2022-11-15T02:53:54;10.50;53.40
2749;DHT22;1382;52.142;11.618;2022-11-15T02:56:21;10.50;53.50
2749;DHT22;1382;52.142;11.618;2022-11-15T02:59:08;10.50;53.40
2749;DHT22;1382;52.142;11.618;2022-11-15T03:01:47;10.50;53.50
2749;DHT22;1382;52.142;11.618;2022-11-15T03:04:25;10.50;53.30
2749;DHT22;1382;52.142;11.618;2022-11-15T03:07:00;10.50;53.30
2749;DHT22;1382;52.142;11.618;2022-11-15T03:09:33;10.40;53.30
2749;DHT22;1382;52.142;11.618;2022-11-15T03:12:09;10.50;53.50
2749;DHT22;1382;52.142;11.618;2022-11-15T03:14:42;10.40;53.30
2749;DHT22;1382;52.142;11.618;2022-11-15T03:17:20;10.40;53.40
2749;DHT22;1382;52.142;11.618;2022-11-15T03:19:51;10.40;53.50
2749;DHT22;1382;52.142;11.618;2022-11-15T03:22:22;10.40;53.60
2749;DHT22;1382;52.142;11.618;2022-11-15T03:24:53;10.40;53.40
2749;DHT22;1382;52.142;11.618;2022-11-15T03:27:24;10.50;53.20
2749;DHT22;1382;52.142;11.618;2022-11-15T03:29:54;10.40;53.10
2749;DHT22;1382;52.142;11.618;2022-11-15T03:32:26;10.40;53.30
2749;DHT22;1382;52.142;11.618;2022-11-15T03:34:58;10.40;53.10
2749;DHT22;1382;52.142;11.618;2022-11-15T03:37:30;10.50;53.30
2749;DHT22;1382;52.142;11.618;2022-11-15T03:39:59;10.50;53.20
2749;DHT22;1382;52.142;11.618;2022-11-15T03:42:30;10.40;53.30
2749;DHT22;1382;52.142;11.618;2022-11-15T03:45:01;10.40;53.30
2749;DHT22;1382;52.142;11.618;2022-11-15T03:47:35;10.40;53.40
2749;DHT22;1382;52.142;11.618;2022-11-15T03:50:07;10.40;53.40
2749;DHT22;1382;52.142;11.618;2022-11-15T03:52:34;10.40;53.30
2749;DHT22;1382;52.142;11.618;2022-11-15T03:55:03;10.40;53.40
2749;DHT22;1382;52.142;11.618;2022-11-15T03:57:31;10.30;53.20
2749;DHT22;1382;52.142;11.618;2022-11-15T03:59:57;10.30;53.00
2749;DHT22;1382;52.142;11.618;2022-11-15T04:02:24;10.40;53.10
2749;DHT22;1382;52.142;11.618;2022-11-15T04:04:52;10.40;53.30
2749;DHT22;1382;52.142;11.618;2022-11-15T04:07:19;10.30;53.80
2749;DHT22;1382;52.142;11.618;2022-11-15T04:09:46;10.30;53.10
2749;DHT22;1382;52.142;11.618;2022-11-15T04:12:13;10.30;53.20
2749;DHT22;1382;52.142;11.618;2022-11-15T04:14:39;10.30;53.20
2749;DHT22;1382;52.142;11.618;2022-11-15T04:17:06;10.30;53.10
2749;DHT22;1382;52.142;11.618;2022-11-15T04:19:33;10.30;53.00
2749;DHT22;1382;52.142;11.618;2022-11-15T04:22:01;10.40;53.10
2749;DHT22;1382;52.142;11.618;2022-11-15T04:24:28;10.30;53.20
2749;DHT22;1382;52.142;11.618;2022-11-15T04:26:55;10.20;53.20
2749;DHT22;1382;52.142;11.618;2022-11-15T04:29:21;10.40;53.50
2749;DHT22;1382;52.142;11.618;2022-11-15T04:31:48;10.20;53.20
2749;DHT22;1382;52.142;11.618;2022-11-15T04:34:15;10.20;53.20
2749;DHT22;1382;52.142;11.618;2022-11-15T04:36:42;10.20;53.10
2749;DHT22;1382;52.142;11.618;2022-11-15T04:39:10;10.20;53.00
2749;DHT22;1382;52.142;11.618;2022-11-15T04:41:36;10.20;53.30
2749;DHT22;1382;52.142;11.618;2022-11-15T04:44:03;10.20;53.30
2749;DHT22;1382;52.142;11.618;2022-11-15T04:46:30;10.20;53.30
2749;DHT22;1382;52.142;11.618;2022-11-15T04:48:57;10.20;53.20
2749;DHT22;1382;52.142;11.618;2022-11-15T04:51:25;10.40;53.40
2749;DHT22;1382;52.142;11.618;2022-11-15T04:53:52;10.20;53.30
2749;DHT22;1382;52.142;11.618;2022-11-15T04:56:20;10.20;53.30
2749;DHT22;1382;52.142;11.618;2022-11-15T04:58:48;10.20;53.40
2749;DHT22;1382;52.142;11.618;2022-11-15T05:01:15;10.20;53.30
2749;DHT22;1382;52.142;11.618;2022-11-15T05:03:43;10.40;53.50
2749;DHT22;1382;52.142;11.618;2022-11-15T05:06:10;10.20;53.30
2749;DHT22;1382;52.142;11.618;2022-11-15T05:08:37;10.20;53.30
2749;DHT22;1382;52.142;11.618;2022-11-15T05:11:03;10.20;53.40
2749;DHT22;1382;52.142;11.618;2022-11-15T05:13:32;10.20;53.20
2749;DHT22;1382;52.142;11.618;2022-11-15T05:15:59;10.20;53.30
2749;DHT22;1382;52.142;11.618;2022-11-15T05:18:26;10.20;53.30
2749;DHT22;1382;52.142;11.618;2022-11-15T05:20:53;10.20;53.40
2749;DHT22;1382;52.142;11.618;2022-11-15T05:23:19;10.30;53.20
2749;DHT22;1382;52.142;11.618;2022-11-15T05:25:46;10.20;53.80
2749;DHT22;1382;52.142;11.618;2022-11-15T05:28:13;10.20;53.10
2749;DHT22;1382;52.142;11.618;2022-11-15T05:30:41;10.20;53.10
2749;DHT22;1382;52.142;11.618;2022-11-15T05:33:08;10.20;53.20
2749;DHT22;1382;52.142;11.618;2022-11-15T05:35:38;10.20;53.20
2749;DHT22;1382;52.142;11.618;2022-11-15T05:38:06;10.20;53.50
2749;DHT22;1382;52.142;11.618;2022-11-15T05:40:33;10.20;53.40
2749;DHT22;1382;52.142;11.618;2022-11-15T05:43:02;10.20;53.20
2749;DHT22;1382;52.142;11.618;2022-11-15T05:45:29;10.20;53.20
2749;DHT22;1382;52.142;11.618;2022-11-15T05:47:59;10.20;53.10
2749;DHT22;1382;52.142;11.618;2022-11-15T05:50:27;10.20;53.10
2749;DHT22;1382;52.142;11.618;2022-11-15T05:52:54;10.20;53.00
2749;DHT22;1382;52.142;11.618;2022-11-15T05:55:27;10.30;53.00
2749;DHT22;1382;52.142;11.618;2022-11-15T05:57:55;10.20;53.00
2749;DHT22;1382;52.142;11.618;2022-11-15T06:00:22;10.20;52.90
2749;DHT22;1382;52.142;11.618;2022-11-15T06:02:48;10.30;53.20
2749;DHT22;1382;52.142;11.618;2022-11-15T06:05:16;10.10;53.00
2749;DHT22;1382;52.142;11.618;2022-11-15T06:07:43;10.10;53.20
2749;DHT22;1382;52.142;11.618;2022-11-15T06:10:10;10.10;53.20
2749;DHT22;1382;52.142;11.618;2022-11-15T06:12:37;10.10;53.10
2749;DHT22;1382;52.142;11.618;2022-11-15T06:15:04;10.10;53.10
2749;DHT22;1382;52.142;11.618;2022-11-15T06:17:31;10.10;53.20
2749;DHT22;1382;52.142;11.618;2022-11-15T06:19:58;10.10;53.40
2749;DHT22;1382;52.142;11.618;2022-11-15T06:22:26;10.00;53.20
2749;DHT22;1382;52.142;11.618;2022-11-15T06:24:53;10.10;53.20
2749;DHT22;1382;52.142;11.618;2022-11-15T06:27:20;10.00;53.00
2749;DHT22;1382;52.142;11.618;2022-11-15T06:29:46;10.00;53.10
2749;DHT22;1382;52.142;11.618;2022-11-15T06:32:13;10.10;53.20
2749;DHT22;1382;52.142;11.618;2022-11-15T06:34:40;10.00;53.40
2749;DHT22;1382;52.142;11.618;2022-11-15T06:37:07;10.00;53.30
2749;DHT22;1382;52.142;11.618;2022-11-15T06:39:35;10.10;53.30
2749;DHT22;1382;52.142;11.618;2022-11-15T06:42:01;10.00;53.40
2749;DHT22;1382;52.142;11.618;2022-11-15T06:44:28;10.00;53.30
2749;DHT22;1382;52.142;11.618;2022-11-15T06:46:55;10.00;53.50
2749;DHT22;1382;52.142;11.618;2022-11-15T06:49:22;10.00;53.50
2749;DHT22;1382;52.142;11.618;2022-11-15T06:51:48;10.00;53.20
2749;DHT22;1382;52.142;11.618;2022-11-15T06:54:15;10.00;53.30
2749;DHT22;1382;52.142;11.618;2022-11-15T06:56:43;10.00;53.30
2749;DHT22;1382;52.142;11.618;2022-11-15T06:59:10;10.00;54.20
2749;DHT22;1382;52.142;11.618;2022-11-15T07:01:37;10.00;53.30
2749;DHT22;1382;52.142;11.618;2022-11-15T07:04:04;10.00;53.60
2749;DHT22;1382;52.142;11.618;2022-11-15T07:06:30;10.00;53.30
2749;DHT22;1382;52.142;11.618;2022-11-15T07:08:57;9.90;54.40
2749;DHT22;1382;52.142;11.618;2022-11-15T07:11:24;9.90;54.60
2749;DHT22;1382;52.142;11.618;2022-11-15T07:13:52;9.90;54.50
2749;DHT22;1382;52.142;11.618;2022-11-15T07:16:19;9.90;54.50
2749;DHT22;1382;52.142;11.618;2022-11-15T07:18:46;9.90;54.50
2749;DHT22;1382;52.142;11.618;2022-11-15T07:21:13;10.10;53.90
2749;DHT22;1382;52.142;11.618;2022-11-15T07:23:40;10.00;53.70
2749;DHT22;1382;52.142;11.618;2022-11-15T07:26:07;10.00;53.80
2749;DHT22;1382;52.142;11.618;2022-11-15T07:28:35;10.10;53.60
2749;DHT22;1382;52.142;11.618;2022-11-15T07:31:04;10.00;53.60
2749;DHT22;1382;52.142;11.618;2022-11-15T07:33:31;10.00;53.70
2749;DHT22;1382;52.142;11.618;2022-11-15T07:35:59;10.00;53.50
2749;DHT22;1382;52.142;11.618;2022-11-15T07:38:26;10.00;53.50
2749;DHT22;1382;52.142;11.618;2022-11-15T07:40:56;10.00;53.50
2749;DHT22;1382;52.142;11.618;2022-11-15T07:43:23;10.00;53.70
2749;DHT22;1382;52.142;11.618;2022-11-15T07:45:50;10.00;53.90
2749;DHT22;1382;52.142;11.618;2022-11-15T07:48:25;10.00;54.00
2749;DHT22;1382;52.142;11.618;2022-11-15T07:51:05;10.00;53.60
2749;DHT22;1382;52.142;11.618;2022-11-15T07:53:39;10.00;53.50
2749;DHT22;1382;52.142;11.618;2022-11-15T07:56:06;10.00;53.80
2749;DHT22;1382;52.142;11.618;2022-11-15T07:58:33;10.10;53.80
2749;DHT22;1382;52.142;11.618;2022-11-15T08:01:02;10.10;53.80
2749;DHT22;1382;52.142;11.618;2022-11-15T08:03:33;10.20;53.80
2749;DHT22;1382;52.142;11.618;2022-11-15T08:06:01;10.20;53.90
2749;DHT22;1382;52.142;11.618;2022-11-15T08:08:28;10.20;53.70
2749;DHT22;1382;52.142;11.618;2022-11-15T08:10:56;10.20;53.60
2749;DHT22;1382;52.142;11.618;2022-11-15T08:13:23;10.20;54.20
2749;DHT22;1382;52.142;11.618;2022-11-15T08:15:50;10.20;53.70
2749;DHT22;1382;52.142;11.618;2022-11-15T08:18:23;10.30;54.20
2749;DHT22;1382;52.142;11.618;2022-11-15T08:20:52;10.30;54.20
2749;DHT22;1382;52.142;11.618;2022-11-15T08:23:19;10.30;54.00
2749;DHT22;1382;52.142;11.618;2022-11-15T08:25:45;10.50;54.10
2749;DHT22;1382;52.142;11.618;2022-11-15T08:28:12;10.40;54.50
2749;DHT22;1382;52.142;11.618;2022-11-15T08:30:41;10.40;54.30
2749;DHT22;1382;52.142;11.618;2022-11-15T08:33:10;10.50;54.50
2749;DHT22;1382;52.142;11.618;2022-11-15T08:35:38;10.50;54.30
2749;DHT22;1382;52.142;11.618;2022-11-15T08:38:06;10.60;54.40
2749;DHT22;1382;52.142;11.618;2022-11-15T08:40:33;10.80;54.80
2749;DHT22;1382;52.142;11.618;2022-11-15T08:42:59;10.80;55.00
2749;DHT22;1382;52.142;11.618;2022-11-15T08:45:27;10.70;54.50
2749;DHT22;1382;52.142;11.618;2022-11-15T08:47:53;10.80;54.90
2749;DHT22;1382;52.142;11.618;2022-11-15T08:50:20;10.80;54.80
2749;DHT22;1382;52.142;11.618;2022-11-15T08:52:47;11.10;54.90
2749;DHT22;1382;52.142;11.618;2022-11-15T08:55:15;10.90;54.80
2749;DHT22;1382;52.142;11.618;2022-11-15T08:57:43;11.00;55.20
2749;DHT22;1382;52.142;11.618;2022-11-15T09:00:11;11.10;55.60
2749;DHT22;1382;52.142;11.618;2022-11-15T09:02:39;11.10;55.40
2749;DHT22;1382;52.142;11.618;2022-11-15T09:05:06;11.30;55.50
2749;DHT22;1382;52.142;11.618;2022-11-15T09:07:33;11.30;55.60
2749;DHT22;1382;52.142;11.618;2022-11-15T09:10:00;11.30;55.60
2749;DHT22;1382;52.142;11.618;2022-11-15T09:12:29;11.40;55.70
2749;DHT22;1382;52.142;11.618;2022-11-15T09:14:55;11.60;56.10
2749;DHT22;1382;52.142;11.618;2022-11-15T09:17:22;11.60;56.00
2749;DHT22;1382;52.142;11.618;2022-11-15T09:19:51;11.60;55.70
2749;DHT22;1382;52.142;11.618;2022-11-15T09:22:17;11.70;55.50
2749;DHT22;1382;52.142;11.618;2022-11-15T09:24:44;11.80;56.00
2749;DHT22;1382;52.142;11.618;2022-11-15T09:27:11;11.90;56.10
2749;DHT22;1382;52.142;11.618;2022-11-15T09:29:39;12.00;55.90
2749;DHT22;1382;52.142;11.618;2022-11-15T09:32:06;12.10;56.30
2749;DHT22;1382;52.142;11.618;2022-11-15T09:34:33;12.30;56.40
2749;DHT22;1382;52.142;11.618;2022-11-15T09:37:00;12.30;56.70
2749;DHT22;1382;52.142;11.618;2022-11-15T09:39:26;12.30;56.70
2749;DHT22;1382;52.142;11.618;2022-11-15T09:42:12;12.40;56.70
2749;DHT22;1382;52.142;11.618;2022-11-15T09:44:55;12.60;57.00
2749;DHT22;1382;52.142;11.618;2022-11-15T09:47:40;12.70;56.60
2749;DHT22;1382;52.142;11.618;2022-11-15T09:50:14;12.80;56.50
2749;DHT22;1382;52.142;11.618;2022-11-15T09:52:43;12.90;56.50
2749;DHT22;1382;52.142;11.618;2022-11-15T09:55:12;13.00;56.40
2749;DHT22;1382;52.142;11.618;2022-11-15T09:57:46;13.10;56.50
2749;DHT22;1382;52.142;11.618;2022-11-15T10:00:20;13.20;56.50
2749;DHT22;1382;52.142;11.618;2022-11-15T10:03:11;13.30;57.20
2749;DHT22;1382;52.142;11.618;2022-11-15T10:05:40;13.40;56.50
2749;DHT22;1382;52.142;11.618;2022-11-15T10:08:18;13.50;56.30
2749;DHT22;1382;52.142;11.618;2022-11-15T10:10:50;13.60;56.50
2749;DHT22;1382;52.142;11.618;2022-11-15T10:13:42;13.70;56.50
2749;DHT22;1382;52.142;11.618;2022-11-15T10:16:36;13.90;56.90
2749;DHT22;1382;52.142;11.618;2022-11-15T10:19:09;14.10;55.90
2749;DHT22;1382;52.142;11.618;2022-11-15T10:21:48;14.10;55.80
2749;DHT22;1382;52.142;11.618;2022-11-15T10:24:19;14.20;55.70
2749;DHT22;1382;52.142;11.618;2022-11-15T10:26:47;14.30;55.60
2749;DHT22;1382;52.142;11.618;2022-11-15T10:29:18;14.30;55.00
2749;DHT22;1382;52.142;11.618;2022-11-15T10:31:47;14.50;55.20
2749;DHT22;1382;52.142;11.618;2022-11-15T10:34:16;14.50;55.00
2749;DHT22;1382;52.142;11.618;2022-11-15T10:36:45;14.60;54.70
2749;DHT22;1382;52.142;11.618;2022-11-15T10:39:16;14.70;54.90
2749;DHT22;1382;52.142;11.618;2022-11-15T10:41:43;14.70;54.80
2749;DHT22;1382;52.142;11.618;2022-11-15T10:44:22;14.80;54.70
2749;DHT22;1382;52.142;11.618;2022-11-15T10:47:25;14.90;54.50
2749;DHT22;1382;52.142;11.618;2022-11-15T10:49:54;15.00;54.50
2749;DHT22;1382;52.142;11.618;2022-11-15T10:52:21;15.00;54.60
2749;DHT22;1382;52.142;11.618;2022-11-15T10:54:50;15.00;54.30
2749;DHT22;1382;52.142;11.618;2022-11-15T10:57:19;15.10;54.30
2749;DHT22;1382;52.142;11.618;2022-11-15T10:59:48;15.20;54.40
2749;DHT22;1382;52.142;11.618;2022-11-15T11:02:31;15.30;54.20
2749;DHT22;1382;52.142;11.618;2022-11-15T11:04:59;15.50;54.30
2749;DHT22;1382;52.142;11.618;2022-11-15T11:07:27;15.40;53.80
2749;DHT22;1382;52.142;11.618;2022-11-15T11:10:00;15.40;53.70
2749;DHT22;1382;52.142;11.618;2022-11-15T11:12:28;15.50;53.90
2749;DHT22;1382;52.142;11.618;2022-11-15T11:14:56;15.60;53.90
2749;DHT22;1382;52.142;11.618;2022-11-15T11:17:41;15.60;53.60
2749;DHT22;1382;52.142;11.618;2022-11-15T11:20:18;15.70;54.00
2749;DHT22;1382;52.142;11.618;2022-11-15T11:22:57;15.70;53.70
2749;DHT22;1382;52.142;11.618;2022-11-15T11:25:32;15.80;53.80
2749;DHT22;1382;52.142;11.618;2022-11-15T11:28:28;15.90;54.00
2749;DHT22;1382;52.142;11.618;2022-11-15T11:31:10;16.00;53.70
2749;DHT22;1382;52.142;11.618;2022-11-15T11:33:46;16.00;54.00
2749;DHT22;1382;52.142;11.618;2022-11-15T11:36:21;16.10;53.90
2749;DHT22;1382;52.142;11.618;2022-11-15T11:38:58;16.20;54.00
2749;DHT22;1382;52.142;11.618;2022-11-15T11:41:42;16.30;53.90
2749;DHT22;1382;52.142;11.618;2022-11-15T11:44:22;16.50;53.70
2749;DHT22;1382;52.142;11.618;2022-11-15T11:46:55;16.40;53.80
2749;DHT22;1382;52.142;11.618;2022-11-15T11:49:29;16.50;53.80
2749;DHT22;1382;52.142;11.618;2022-11-15T11:52:02;16.60;53.60
2749;DHT22;1382;52.142;11.618;2022-11-15T11:54:37;16.70;53.70
2749;DHT22;1382;52.142;11.618;2022-11-15T11:57:07;16.80;53.60
2749;DHT22;1382;52.142;11.618;2022-11-15T11:59:41;16.90;53.60
2749;DHT22;1382;52.142;11.618;2022-11-15T12:02:16;17.00;53.50
2749;DHT22;1382;52.142;11.618;2022-11-15T12:04:49;17.20;53.30
2749;DHT22;1382;52.142;11.618;2022-11-15T12:07:20;17.10;53.10
2749;DHT22;1382;52.142;11.618;2022-11-15T12:09:53;17.20;52.90
2749;DHT22;1382;52.142;11.618;2022-11-15T12:12:25;17.30;52.70
2749;DHT22;1382;52.142;11.618;2022-11-15T12:14:56;17.40;52.50
2749;DHT22;1382;52.142;11.618;2022-11-15T12:17:25;17.40;52.40
2749;DHT22;1382;52.142;11.618;2022-11-15T12:19:56;17.40;52.30
2749;DHT22;1382;52.142;11.618;2022-11-15T12:22:28;17.60;52.40
2749;DHT22;1382;52.142;11.618;2022-11-15T12:25:02;17.50;52.10
2749;DHT22;1382;52.142;11.618;2022-11-15T12:27:36;17.60;52.00
2749;DHT22;1382;52.142;11.618;2022-11-15T12:30:11;17.60;51.90
2749;DHT22;1382;52.142;11.618;2022-11-15T12:32:41;17.70;51.90
2749;DHT22;1382;52.142;11.618;2022-11-15T12:35:25;17.70;51.80
2749;DHT22;1382;52.142;11.618;2022-11-15T12:37:53;17.70;51.90
2749;DHT22;1382;52.142;11.618;2022-11-15T12:40:28;17.70;51.90
2749;DHT22;1382;52.142;11.618;2022-11-15T12:43:01;17.80;51.90
2749;DHT22;1382;52.142;11.618;2022-11-15T12:45:30;17.80;51.70
2749;DHT22;1382;52.142;11.618;2022-11-15T12:51:13;18.00;51.60
2749;DHT22;1382;52.142;11.618;2022-11-15T12:53:40;17.90;51.70
2749;DHT22;1382;52.142;11.618;2022-11-15T12:56:23;18.00;51.50
2749;DHT22;1382;52.142;11.618;2022-11-15T12:58:55;18.00;51.30
2749;DHT22;1382;52.142;11.618;2022-11-15T13:01:57;18.20;51.40
2749;DHT22;1382;52.142;11.618;2022-11-15T13:04:29;18.20;51.00
2749;DHT22;1382;52.142;11.618;2022-11-15T13:06:59;18.20;51.30
2749;DHT22;1382;52.142;11.618;2022-11-15T13:09:52;18.20;51.00
2749;DHT22;1382;52.142;11.618;2022-11-15T13:12:49;18.20;50.80
2749;DHT22;1382;52.142;11.618;2022-11-15T13:15:34;18.20;50.80
2749;DHT22;1382;52.142;11.618;2022-11-15T13:18:33;18.30;50.90
2749;DHT22;1382;52.142;11.618;2022-11-15T13:21:02;18.20;50.80
2749;DHT22;1382;52.142;11.618;2022-11-15T13:23:30;18.20;51.00
2749;DHT22;1382;52.142;11.618;2022-11-15T13:26:10;18.20;50.90
2749;DHT22;1382;52.142;11.618;2022-11-15T13:28:41;18.20;50.60
2749;DHT22;1382;52.142;11.618;2022-11-15T13:31:26;18.20;50.80
2749;DHT22;1382;52.142;11.618;2022-11-15T13:33:55;18.20;50.40
2749;DHT22;1382;52.142;11.618;2022-11-15T13:36:25;18.30;50.80
2749;DHT22;1382;52.142;11.618;2022-11-15T13:38:59;18.10;50.60
2749;DHT22;1382;52.142;11.618;2022-11-15T13:41:27;18.10;50.70
2749;DHT22;1382;52.142;11.618;2022-11-15T13:43:56;18.00;50.70
2749;DHT22;1382;52.142;11.618;2022-11-15T13:46:24;18.00;50.70
2749;DHT22;1382;52.142;11.618;2022-11-15T13:48:53;18.10;50.90
2749;DHT22;1382;52.142;11.618;2022-11-15T13:51:24;17.90;50.80
2749;DHT22;1382;52.142;11.618;2022-11-15T13:53:58;17.80;50.80
2749;DHT22;1382;52.142;11.618;2022-11-15T13:56:26;17.80;50.90
2749;DHT22;1382;52.142;11.618;2022-11-15T13:58:54;17.80;51.00
2749;DHT22;1382;52.142;11.618;2022-11-15T14:01:21;17.90;51.20
2749;DHT22;1382;52.142;11.618;2022-11-15T14:03:55;17.80;51.10
2749;DHT22;1382;52.142;11.618;2022-11-15T14:06:24;17.70;51.20
2749;DHT22;1382;52.142;11.618;2022-11-15T14:09:14;17.60;51.20
2749;DHT22;1382;52.142;11.618;2022-11-15T14:11:50;17.70;51.20
2749;DHT22;1382;52.142;11.618;2022-11-15T14:14:21;17.60;51.40
2749;DHT22;1382;52.142;11.618;2022-11-15T14:16:49;17.50;51.60
2749;DHT22;1382;52.142;11.618;2022-11-15T14:19:35;17.50;51.60
2749;DHT22;1382;52.142;11.618;2022-11-15T14:22:17;17.60;51.60
2749;DHT22;1382;52.142;11.618;2022-11-15T14:24:46;17.50;51.80
2749;DHT22;1382;52.142;11.618;2022-11-15T14:27:31;17.50;51.80
2749;DHT22;1382;52.142;11.618;2022-11-15T14:29:58;17.50;51.70
2749;DHT22;1382;52.142;11.618;2022-11-15T14:32:27;17.40;51.80
2749;DHT22;1382;52.142;11.618;2022-11-15T14:34:55;17.40;51.90
2749;DHT22;1382;52.142;11.618;2022-11-15T14:37:24;17.40;51.90
2749;DHT22;1382;52.142;11.618;2022-11-15T14:39:53;17.40;51.90
2749;DHT22;1382;52.142;11.618;2022-11-15T14:42:24;17.40;51.90
2749;DHT22;1382;52.142;11.618;2022-11-15T14:44:51;17.40;51.90
2749;DHT22;1382;52.142;11.618;2022-11-15T14:47:18;17.40;51.90
2749;DHT22;1382;52.142;11.618;2022-11-15T14:49:45;17.40;52.50
2749;DHT22;1382;52.142;11.618;2022-11-15T14:52:25;17.40;51.90
2749;DHT22;1382;52.142;11.618;2022-11-15T14:55:00;17.40;51.60
2749;DHT22;1382;52.142;11.618;2022-11-15T14:57:27;17.40;51.80
2749;DHT22;1382;52.142;11.618;2022-11-15T14:59:54;17.40;51.80
2749;DHT22;1382;52.142;11.618;2022-11-15T15:02:22;17.40;51.70
2749;DHT22;1382;52.142;11.618;2022-11-15T15:04:49;17.40;51.60
2749;DHT22;1382;52.142;11.618;2022-11-15T15:07:17;17.40;51.70
2749;DHT22;1382;52.142;11.618;2022-11-15T15:09:45;17.30;51.50
2749;DHT22;1382;52.142;11.618;2022-11-15T15:12:18;17.30;51.60
2749;DHT22;1382;52.142;11.618;2022-11-15T15:14:45;17.30;51.60
2749;DHT22;1382;52.142;11.618;2022-11-15T15:17:13;17.30;51.60
2749;DHT22;1382;52.142;11.618;2022-11-15T15:19:40;17.30;51.60
2749;DHT22;1382;52.142;11.618;2022-11-15T15:22:11;17.30;51.60
2749;DHT22;1382;52.142;11.618;2022-11-15T15:24:39;17.20;51.50
2749;DHT22;1382;52.142;11.618;2022-11-15T15:27:06;17.20;51.60
2749;DHT22;1382;52.142;11.618;2022-11-15T15:29:34;17.20;51.60
2749;DHT22;1382;52.142;11.618;2022-11-15T15:32:01;17.30;51.70
2749;DHT22;1382;52.142;11.618;2022-11-15T15:34:27;17.10;52.30
2749;DHT22;1382;52.142;11.618;2022-11-15T15:37:07;17.10;51.70
2749;DHT22;1382;52.142;11.618;2022-11-15T15:39:34;17.10;51.60
2749;DHT22;1382;52.142;11.618;2022-11-15T15:42:01;17.00;51.70
2749;DHT22;1382;52.142;11.618;2022-11-15T15:44:28;17.00;51.80
2749;DHT22;1382;52.142;11.618;2022-11-15T15:46:56;16.90;51.90
2749;DHT22;1382;52.142;11.618;2022-11-15T15:49:23;16.90;51.90
2749;DHT22;1382;52.142;11.618;2022-11-15T15:51:49;16.90;52.10
2749;DHT22;1382;52.142;11.618;2022-11-15T15:54:16;16.80;52.10
2749;DHT22;1382;52.142;11.618;2022-11-15T15:56:43;16.80;52.20
2749;DHT22;1382;52.142;11.618;2022-11-15T15:59:10;16.70;52.20
2749;DHT22;1382;52.142;11.618;2022-11-15T16:01:36;16.70;52.20
2749;DHT22;1382;52.142;11.618;2022-11-15T16:04:04;16.70;52.30
2749;DHT22;1382;52.142;11.618;2022-11-15T16:06:37;16.70;52.40
2749;DHT22;1382;52.142;11.618;2022-11-15T16:09:04;16.60;52.30
2749;DHT22;1382;52.142;11.618;2022-11-15T16:11:42;16.60;52.40